»·PEaware :: N432SP KPOC-KAVX

N432SP :: KPOC-KAVX

FLIGHT INFORMATION

Flight Status: Arrived
Operator: Privately registered:
United States
More flights under this callsign
Pilot: Abdulkadir S. (4989)
Aircraft: CESSNA 172 SKYHAWK
(C172)
More flights by this aircraft type
Origin: KPOC Brackett
United States
Destination: KAVX Catalina
United States
More flights between these airports :: More routes between these airports
Route: +PRADO V363 DANAH SXC065 SXC
File this flight plan on PilotEdge
Remarks: ONTN8
Altitude:
(Current/Filed)
7,000ft
Speed:
(Current/Filed)
110kts
Departed: 11-Jan-18 02:09 PM
Arrived: 11-Jan-18 02:49 PM
Distance/Time
Traveled:
52nm/0:40
Distance/Time
To Go:
Arrived

Flight Plot

Page will automatically refresh every two minutes.

Flight plan parsing failed; only flown route is shown


Map Options




Map Legend


Flown Route
Filed Route
Departure Airport
Arrival Airport
Navaid (VOR, NDB)
Fix

Horizontal Profiles

Position Reports

Time Latitude Longitude Heading Altitude Ground
Speed
11-Jan-18 13:51 34.089580 -117.777240 1 999ft 0kts
11-Jan-18 13:52 34.089580 -117.777240 1 999ft 0kts
11-Jan-18 13:53 34.089580 -117.777240 1 999ft 0kts
11-Jan-18 13:54 34.089580 -117.777240 1 999ft 0kts
11-Jan-18 13:55 34.089580 -117.777240 1 999ft 0kts
11-Jan-18 13:56 34.089580 -117.777240 1 999ft 0kts
11-Jan-18 13:57 34.089580 -117.777240 1 999ft 0kts
11-Jan-18 13:58 34.089580 -117.777240 1 999ft 0kts
11-Jan-18 13:59 34.089580 -117.777240 1 999ft 0kts
11-Jan-18 14:00 34.089580 -117.777240 1 999ft 0kts
11-Jan-18 14:01 34.089580 -117.777240 1 999ft 0kts
11-Jan-18 14:02 34.089580 -117.777240 1 999ft 0kts
11-Jan-18 14:03 34.089580 -117.777240 1 999ft 0kts
11-Jan-18 14:04 34.089580 -117.777240 1 999ft 0kts
11-Jan-18 14:05 34.089580 -117.777240 1 999ft 0kts
11-Jan-18 14:06 34.089580 -117.777240 1 999ft 0kts
11-Jan-18 14:07 34.089580 -117.777240 1 999ft 0kts
11-Jan-18 14:08 34.089580 -117.777240 1 999ft 0kts
11-Jan-18 14:09 34.089636 -117.777228 17 999ft 3kts
11-Jan-18 14:10 34.090365 -117.776551 94 1000ft 7kts
11-Jan-18 14:11 34.090499 -117.774649 7 1002ft 0kts
11-Jan-18 14:12 34.090499 -117.774649 7 1002ft 0kts
11-Jan-18 14:13 34.090499 -117.774649 7 1002ft 0kts
11-Jan-18 14:14 34.090499 -117.774649 7 1002ft 0kts
11-Jan-18 14:15 34.091156 -117.778965 269 998ft 67kts
11-Jan-18 14:16 34.089417 -117.803211 201 1832ft 75kts
11-Jan-18 14:17 34.071029 -117.790478 146 2661ft 81kts
11-Jan-18 14:18 34.049902 -117.785796 181 3454ft 81kts
11-Jan-18 14:19 34.026830 -117.784862 179 4209ft 84kts
11-Jan-18 14:20 34.002979 -117.785344 183 4793ft 88kts
11-Jan-18 14:21 33.978607 -117.784920 181 5413ft 88kts
11-Jan-18 14:22 33.953612 -117.785164 183 5977ft 90kts
11-Jan-18 14:23 33.928050 -117.783798 177 6498ft 94kts
11-Jan-18 14:24 33.902089 -117.782886 180 7043ft 97kts
11-Jan-18 14:25 33.868835 -117.780689 177 7031ft 130kts
11-Jan-18 14:26 33.833695 -117.780109 181 6994ft 106kts
11-Jan-18 14:27 33.803626 -117.778626 181 7074ft 128kts
11-Jan-18 14:28 33.767048 -117.775115 174 7081ft 133kts
11-Jan-18 14:29 33.733974 -117.757660 155 7005ft 130kts
11-Jan-18 14:30 33.700284 -117.743329 163 6996ft 127kts
11-Jan-18 14:31 33.667086 -117.730875 167 7028ft 124kts
11-Jan-18 14:32 33.633284 -117.722510 176 7083ft 123kts
11-Jan-18 14:33 33.598470 -117.718212 172 7092ft 127kts
11-Jan-18 14:34 33.562713 -117.710633 176 7045ft 132kts
11-Jan-18 14:35 33.538908 -117.733944 252 7012ft 120kts
11-Jan-18 14:36 33.528958 -117.765160 255 7007ft 119kts
11-Jan-18 14:37 33.519036 -117.803216 252 6980ft 119kts
11-Jan-18 14:38 33.506967 -117.839676 256 6485ft 116kts
11-Jan-18 14:39 33.497125 -117.882833 267 5681ft 113kts
11-Jan-18 14:40 33.493613 -117.914101 265 5102ft 113kts
11-Jan-18 14:41 33.484722 -117.950596 256 4413ft 114kts
11-Jan-18 14:42 33.475039 -117.986419 260 4029ft 112kts
11-Jan-18 14:43 33.468334 -118.022533 258 4017ft 111kts
11-Jan-18 14:44 33.458833 -118.058553 248 4072ft 117kts
11-Jan-18 14:45 33.447356 -118.095504 258 4032ft 117kts
11-Jan-18 14:46 33.441762 -118.131509 263 4037ft 111kts
11-Jan-18 14:47 33.434280 -118.168276 255 3830ft 118kts
11-Jan-18 14:48 33.424842 -118.205322 255 3755ft 117kts
11-Jan-18 14:49 33.415653 -118.242704 256 3735ft 119kts
11-Jan-18 14:50 33.406364 -118.280143 254 3751ft 117kts
11-Jan-18 14:51 33.399278 -118.317782 268 3707ft 114kts
11-Jan-18 14:52 33.407935 -118.351879 303 3110ft 95kts
11-Jan-18 14:53 33.413681 -118.376844 283 2635ft 75kts
11-Jan-18 14:54 33.412747 -118.401486 249 1945ft 76kts
11-Jan-18 14:55 33.403047 -118.419063 235 1551ft 30kts
11-Jan-18 14:56 33.403494 -118.416169 105 1546ft 17kts
11-Jan-18 14:57 33.403420 -118.415444 326 1542ft 0kts
11-Jan-18 14:58 33.403420 -118.415444 326 1542ft 0kts
11-Jan-18 14:59 33.403420 -118.415444 326 1542ft 0kts

Navigation Log

Ident Type
Flight plan parsing failed, navigation log unavailable